createdAt,value
2022-11-18T00:02:17.178Z,5.43
2022-11-18T00:04:44.966Z,5.18
2022-11-18T00:07:12.812Z,2.70
2022-11-18T00:09:41.939Z,1.27
2022-11-18T00:12:26.955Z,3.63
2022-11-18T00:14:54.831Z,3.08
2022-11-18T00:17:22.592Z,1.95
2022-11-18T00:19:50.354Z,3.75
2022-11-18T00:22:18.158Z,10.00
2022-11-18T00:24:47.322Z,4.68
2022-11-18T00:27:15.190Z,3.47
2022-11-18T00:29:42.982Z,5.88
2022-11-18T00:32:10.836Z,2.20
2022-11-18T00:34:38.682Z,6.63
2022-11-18T00:37:06.447Z,2.40
2022-11-18T00:39:34.153Z,2.78
2022-11-18T00:42:20.755Z,0.85
2022-11-18T00:44:48.440Z,3.40
2022-11-18T00:47:16.162Z,3.13
2022-11-18T00:49:43.935Z,13.73
2022-11-18T00:52:11.753Z,1.50
2022-11-18T00:54:39.515Z,6.40
2022-11-18T00:57:08.731Z,6.78
2022-11-18T00:59:36.494Z,10.98
2022-11-18T01:02:04.346Z,5.78
2022-11-18T01:04:32.253Z,9.63
2022-11-18T01:06:59.999Z,1.08
2022-11-18T01:09:27.902Z,7.95
2022-11-18T01:12:13.262Z,2.58
2022-11-18T01:14:42.432Z,6.72
2022-11-18T01:17:10.194Z,2.58
2022-11-18T01:19:37.870Z,4.03
2022-11-18T01:22:05.678Z,2.50
2022-11-18T01:24:34.963Z,4.57
2022-11-18T01:27:03.763Z,7.60
2022-11-18T01:29:32.019Z,8.45
2022-11-18T01:32:23.502Z,5.00
2022-11-18T01:34:48.891Z,2.42
2022-11-18T01:37:16.674Z,3.05
2022-11-18T01:39:44.350Z,2.95
2022-11-18T01:42:18.479Z,2.45
2022-11-18T01:44:59.937Z,8.55
2022-11-18T01:47:32.425Z,1.17
2022-11-18T01:50:00.745Z,1.67
2022-11-18T01:52:28.883Z,3.58
2022-11-18T01:55:00.514Z,10.57
2022-11-18T01:57:30.645Z,4.80
2022-11-18T02:00:00.461Z,4.45
2022-11-18T02:02:33.970Z,6.60
2022-11-18T02:07:29.982Z,3.70
2022-11-18T02:10:01.487Z,4.70
2022-11-18T02:12:29.290Z,2.28
2022-11-18T02:14:57.119Z,2.70
2022-11-18T02:17:39.527Z,4.47
2022-11-18T02:20:29.632Z,6.70
2022-11-18T02:23:25.212Z,3.20
2022-11-18T02:26:16.611Z,2.45
2022-11-18T02:29:00.402Z,6.28
2022-11-18T02:34:04.899Z,5.53
2022-11-18T02:36:40.586Z,1.65
2022-11-18T02:39:13.138Z,2.80
2022-11-18T02:41:43.848Z,4.33
2022-11-18T02:44:16.013Z,1.52
2022-11-18T02:46:48.407Z,10.68
2022-11-18T02:49:21.084Z,4.05
2022-11-18T02:51:51.521Z,6.97
2022-11-18T02:54:22.110Z,7.10
2022-11-18T02:56:52.662Z,5.35
2022-11-18T02:59:22.261Z,14.65
2022-11-18T03:01:50.075Z,2.58
2022-11-18T03:04:19.126Z,6.18
2022-11-18T03:06:53.678Z,2.92
2022-11-18T03:09:29.310Z,1.95
2022-11-18T03:12:08.935Z,4.25
2022-11-18T03:14:48.060Z,5.30
2022-11-18T03:17:24.554Z,11.65
2022-11-18T03:20:04.159Z,4.13
2022-11-18T03:22:35.827Z,3.65
2022-11-18T03:25:08.050Z,9.65
2022-11-18T03:27:41.715Z,3.13
2022-11-18T03:30:14.859Z,2.03
2022-11-18T03:32:46.823Z,5.88
2022-11-18T03:35:19.343Z,4.43
2022-11-18T03:37:50.460Z,5.10
2022-11-18T03:40:21.565Z,3.83
2022-11-18T03:42:54.624Z,7.30
2022-11-18T03:45:28.633Z,9.93
2022-11-18T03:48:01.778Z,3.83
2022-11-18T03:50:35.066Z,5.22
2022-11-18T03:53:04.527Z,5.32
2022-11-18T03:55:38.537Z,4.68
2022-11-18T03:58:11.271Z,7.43
2022-11-18T04:00:44.460Z,2.28
2022-11-18T04:03:13.423Z,5.07
2022-11-18T04:05:43.470Z,1.35
2022-11-18T04:08:16.148Z,5.03
2022-11-18T04:10:49.710Z,1.23
2022-11-18T04:15:49.127Z,4.97
2022-11-18T04:18:16.980Z,6.07
2022-11-18T04:20:44.756Z,1.15
2022-11-18T04:23:12.557Z,3.10
2022-11-18T04:25:40.433Z,6.60
2022-11-18T04:28:08.332Z,5.55
2022-11-18T04:30:36.268Z,2.70
2022-11-18T04:33:05.575Z,3.35
2022-11-18T04:35:33.433Z,2.88
2022-11-18T04:38:01.207Z,8.65
2022-11-18T04:40:29.016Z,7.25
2022-11-18T04:42:56.826Z,1.40
2022-11-18T04:45:24.522Z,1.85
2022-11-18T04:47:52.303Z,1.42
2022-11-18T04:50:21.422Z,6.57
2022-11-18T04:52:49.194Z,6.80
2022-11-18T04:55:17.020Z,4.70
2022-11-18T04:57:44.786Z,3.47
2022-11-18T05:00:13.434Z,10.55
2022-11-18T05:02:41.233Z,5.03
2022-11-18T05:05:09.275Z,16.80
2022-11-18T05:07:38.388Z,5.72
2022-11-18T05:10:07.246Z,1.85
2022-11-18T05:12:49.237Z,5.05
2022-11-18T05:15:17.522Z,3.72
2022-11-18T05:17:45.353Z,7.85
2022-11-18T05:20:13.955Z,8.55
2022-11-18T05:22:43.710Z,7.85
2022-11-18T05:25:11.506Z,3.03
2022-11-18T05:27:39.303Z,5.53
2022-11-18T05:30:07.999Z,1.13
2022-11-18T05:32:35.713Z,2.70
2022-11-18T05:35:03.502Z,4.32
2022-11-18T05:37:33.154Z,5.82
2022-11-18T05:40:02.346Z,1.40
2022-11-18T05:42:47.451Z,1.20
2022-11-18T05:45:16.050Z,5.40
2022-11-18T05:47:57.702Z,1.45
2022-11-18T05:50:25.597Z,9.48
2022-11-18T05:52:53.352Z,2.25
2022-11-18T05:55:25.737Z,2.35
2022-11-18T05:57:53.450Z,1.70
2022-11-18T06:00:21.334Z,3.83
2022-11-18T06:02:51.802Z,7.50
2022-11-18T06:05:22.143Z,1.20
2022-11-18T06:07:50.006Z,2.05
2022-11-18T06:10:22.087Z,6.30
2022-11-18T06:12:53.495Z,3.60
2022-11-18T06:15:24.275Z,1.48
2022-11-18T06:17:56.568Z,3.53
2022-11-18T06:20:25.001Z,1.00
2022-11-18T06:22:55.797Z,4.68
2022-11-18T06:25:24.215Z,2.70
2022-11-18T06:27:57.047Z,1.17
2022-11-18T06:30:24.965Z,6.45
2022-11-18T06:32:52.718Z,1.15
2022-11-18T06:35:20.574Z,4.05
2022-11-18T06:37:48.705Z,2.08
2022-11-18T06:40:16.813Z,8.15
2022-11-18T06:43:02.157Z,4.32
2022-11-18T06:45:31.306Z,3.30
2022-11-18T06:47:58.928Z,2.70
2022-11-18T06:50:26.678Z,4.22
2022-11-18T06:52:54.650Z,2.63
2022-11-18T06:55:22.529Z,3.05
2022-11-18T06:57:50.265Z,7.10
2022-11-18T07:00:19.311Z,2.65
2022-11-18T07:02:48.438Z,2.05
2022-11-18T07:05:16.373Z,1.63
2022-11-18T07:07:44.382Z,1.25
2022-11-18T07:10:12.113Z,0.93
2022-11-18T07:12:39.815Z,4.07
2022-11-18T07:15:08.678Z,1.77
2022-11-18T07:17:36.458Z,7.25
2022-11-18T07:20:06.247Z,1.20
2022-11-18T07:22:34.042Z,3.35
2022-11-18T07:25:01.876Z,2.20
2022-11-18T07:27:29.634Z,1.98
2022-11-18T07:29:57.365Z,1.02
2022-11-18T07:32:25.205Z,3.55
2022-11-18T07:34:52.966Z,13.50
2022-11-18T07:37:22.187Z,6.32
2022-11-18T07:39:49.977Z,5.45
2022-11-18T07:42:17.661Z,4.68
2022-11-18T07:44:45.414Z,4.47
2022-11-18T07:47:13.181Z,4.18
2022-11-18T07:49:40.870Z,0.75
2022-11-18T07:52:08.614Z,1.02
2022-11-18T07:54:37.718Z,3.63
2022-11-18T07:57:05.469Z,2.65
2022-11-18T07:59:33.161Z,3.55
2022-11-18T08:02:00.963Z,4.35
2022-11-18T08:04:28.950Z,8.13
2022-11-18T08:06:56.672Z,1.27
2022-11-18T08:09:24.455Z,1.73
2022-11-18T08:11:53.610Z,5.72
2022-11-18T08:14:24.126Z,10.15
2022-11-18T08:16:52.017Z,2.13
2022-11-18T08:19:20.118Z,5.47
2022-11-18T08:21:48.301Z,3.42
2022-11-18T08:24:16.099Z,2.13
2022-11-18T08:26:43.879Z,3.05
2022-11-18T08:29:13.019Z,2.80
2022-11-18T08:31:41.391Z,3.58
2022-11-18T08:34:09.245Z,6.55
2022-11-18T08:36:39.014Z,3.03
2022-11-18T08:39:08.619Z,4.05
2022-11-18T08:41:37.842Z,3.35
2022-11-18T08:44:06.851Z,2.72
2022-11-18T08:46:35.960Z,8.45
2022-11-18T08:49:04.035Z,4.47
2022-11-18T08:51:31.841Z,5.88
2022-11-18T08:53:59.719Z,4.82
2022-11-18T08:56:27.477Z,3.80
2022-11-18T08:58:55.686Z,5.47
2022-11-18T09:01:23.897Z,6.72
2022-11-18T09:03:53.886Z,5.28
2022-11-18T09:06:24.891Z,6.63
2022-11-18T09:08:53.809Z,4.00
2022-11-18T09:11:23.161Z,6.95
2022-11-18T09:14:53.037Z,4.10
2022-11-18T09:16:41.819Z,10.77
2022-11-18T09:19:40.073Z,5.07
2022-11-18T09:22:00.124Z,2.75
2022-11-18T09:24:28.000Z,4.85
2022-11-18T09:26:55.807Z,6.20
2022-11-18T09:29:26.276Z,3.20
2022-11-18T09:31:54.892Z,3.30
2022-11-18T09:34:24.755Z,2.33
2022-11-18T09:36:56.057Z,1.88
2022-11-18T09:39:24.889Z,1.42
2022-11-18T09:42:01.304Z,3.20
2022-11-18T09:44:42.607Z,3.10
2022-11-18T09:47:21.951Z,4.05
2022-11-18T09:49:51.286Z,2.60
2022-11-18T09:52:24.190Z,7.57
2022-11-18T09:54:52.583Z,3.67
2022-11-18T09:57:23.769Z,9.35
2022-11-18T09:59:52.996Z,3.63
2022-11-18T10:02:44.478Z,13.02
2022-11-18T10:05:19.384Z,8.00
2022-11-18T10:07:57.613Z,1.67
2022-11-18T10:10:32.510Z,4.88
2022-11-18T10:13:08.140Z,8.48
2022-11-18T10:15:40.790Z,4.70
2022-11-18T10:18:44.927Z,6.70
2022-11-18T10:21:19.826Z,5.28
2022-11-18T10:23:55.616Z,1.92
2022-11-18T10:26:42.829Z,2.10
2022-11-18T10:29:11.897Z,3.78
2022-11-18T10:31:41.448Z,3.50
2022-11-18T10:34:14.198Z,6.47
2022-11-18T10:36:43.431Z,6.40
2022-11-18T10:39:16.101Z,3.60
2022-11-18T10:41:48.367Z,5.68
2022-11-18T10:44:38.130Z,8.02
2022-11-18T10:47:24.986Z,4.00
2022-11-18T10:49:53.609Z,7.72
2022-11-18T10:52:23.255Z,6.82
2022-11-18T10:55:21.948Z,4.70
2022-11-18T10:57:53.654Z,2.45
2022-11-18T11:00:49.476Z,2.05
2022-11-18T11:03:33.625Z,4.35
2022-11-18T11:06:29.908Z,3.92
2022-11-18T11:09:01.354Z,2.85
2022-11-18T11:11:31.649Z,2.40
2022-11-18T11:14:07.465Z,8.23
2022-11-18T11:16:42.634Z,2.75
2022-11-18T11:19:13.575Z,5.60
2022-11-18T11:21:41.644Z,3.80
2022-11-18T11:24:14.004Z,13.95
2022-11-18T11:30:03.167Z,8.98
2022-11-18T11:32:39.967Z,2.85
2022-11-18T11:35:15.436Z,2.78
2022-11-18T11:37:53.678Z,5.85
2022-11-18T11:40:31.304Z,4.95
2022-11-18T11:43:13.880Z,11.88
2022-11-18T11:46:03.533Z,4.78
2022-11-18T11:48:43.587Z,1.42
2022-11-18T11:51:21.290Z,6.55
2022-11-18T11:54:21.778Z,2.70
2022-11-18T11:56:56.937Z,0.80
2022-11-18T11:59:32.765Z,7.30
2022-11-18T12:02:17.514Z,1.58
2022-11-18T12:04:51.153Z,2.67
2022-11-18T12:07:22.859Z,0.93
2022-11-18T12:10:09.856Z,1.27
2022-11-18T12:12:51.553Z,4.47
2022-11-18T12:15:36.720Z,3.08
2022-11-18T12:18:13.096Z,0.98
2022-11-18T12:20:47.112Z,7.65
2022-11-18T12:23:20.988Z,4.40
2022-11-18T12:25:57.857Z,3.83
2022-11-18T12:28:30.020Z,5.10
2022-11-18T12:31:36.137Z,3.05
2022-11-18T12:34:07.825Z,13.43
2022-11-18T12:36:37.405Z,1.65
2022-11-18T12:39:38.640Z,2.70
2022-11-18T12:42:24.211Z,2.33
2022-11-18T12:44:54.400Z,1.75
2022-11-18T12:48:00.809Z,4.53
2022-11-18T12:50:50.968Z,6.80
2022-11-18T12:53:33.246Z,1.13
2022-11-18T12:56:01.307Z,6.38
2022-11-18T12:58:29.508Z,2.00
2022-11-18T13:01:09.818Z,1.85
2022-11-18T13:03:37.826Z,1.15
2022-11-18T13:06:09.401Z,7.68
2022-11-18T13:08:38.851Z,5.00
2022-11-18T13:11:32.618Z,5.70
2022-11-18T13:14:19.440Z,8.02
2022-11-18T13:17:06.638Z,11.27
2022-11-18T13:19:36.323Z,13.32
2022-11-18T13:22:23.329Z,5.88
2022-11-18T13:24:53.005Z,12.02
2022-11-18T13:27:32.991Z,11.93
2022-11-18T13:30:08.680Z,5.50
2022-11-18T13:32:43.971Z,7.47
2022-11-18T13:35:15.988Z,7.10
2022-11-18T13:37:52.830Z,2.28
2022-11-18T13:40:23.576Z,5.65
2022-11-18T13:42:52.522Z,3.63
2022-11-18T13:45:21.608Z,6.75
2022-11-18T13:47:54.516Z,0.93
2022-11-18T13:50:28.107Z,9.48
2022-11-18T13:53:15.031Z,3.30
2022-11-18T13:55:48.879Z,2.95
2022-11-18T13:58:49.628Z,3.13
2022-11-18T14:01:24.419Z,8.30
2022-11-18T14:03:57.218Z,2.45
2022-11-18T14:06:27.273Z,10.35
2022-11-18T14:09:07.048Z,1.52
2022-11-18T14:11:37.104Z,4.00
2022-11-18T14:14:05.127Z,2.40
2022-11-18T14:16:36.084Z,3.83
2022-11-18T14:19:06.164Z,1.65
2022-11-18T14:21:35.786Z,4.93
2022-11-18T14:24:04.235Z,2.15
2022-11-18T14:26:33.672Z,3.83
2022-11-18T14:29:04.669Z,0.75
2022-11-18T14:31:33.636Z,22.95
2022-11-18T14:34:19.217Z,26.65
2022-11-18T14:36:47.477Z,4.07
2022-11-18T14:39:31.541Z,1.83
2022-11-18T14:42:00.908Z,0.60
2022-11-18T14:44:30.538Z,1.42
2022-11-18T14:47:00.834Z,4.07
2022-11-18T14:49:32.983Z,1.02
2022-11-18T14:52:02.542Z,4.35
2022-11-18T14:54:31.580Z,2.65
2022-11-18T14:57:02.099Z,1.85
2022-11-18T14:59:33.560Z,3.80
2022-11-18T15:02:02.385Z,1.52
2022-11-18T15:04:31.535Z,1.27
2022-11-18T15:06:59.445Z,2.30
2022-11-18T15:09:27.264Z,3.10
2022-11-18T15:11:55.220Z,4.25
2022-11-18T15:14:23.692Z,1.65
2022-11-18T15:16:51.522Z,2.08
2022-11-18T15:19:19.347Z,1.45
2022-11-18T15:21:48.637Z,1.35
2022-11-18T15:24:16.754Z,2.30
2022-11-18T15:26:46.824Z,2.00
2022-11-18T15:29:18.231Z,1.52
2022-11-18T15:31:46.129Z,5.32
2022-11-18T15:34:14.141Z,3.65
2022-11-18T15:36:41.923Z,3.47
2022-11-18T15:39:11.846Z,1.67
2022-11-18T15:41:41.696Z,2.00
2022-11-18T15:44:12.175Z,1.20
2022-11-18T15:46:39.988Z,4.32
2022-11-18T15:49:09.856Z,1.30
2022-11-18T15:51:38.211Z,1.65
2022-11-18T15:54:06.004Z,1.40
2022-11-18T15:56:35.388Z,1.38
2022-11-18T15:59:05.209Z,4.93
2022-11-18T16:01:34.674Z,1.80
2022-11-18T16:04:03.309Z,2.67
2022-11-18T16:06:31.169Z,4.25
2022-11-18T16:09:00.395Z,7.13
2022-11-18T16:11:46.916Z,11.05
2022-11-18T16:14:18.384Z,8.73
2022-11-18T16:16:47.788Z,10.50
2022-11-18T16:19:17.447Z,11.15
2022-11-18T16:21:48.211Z,9.93
2022-11-18T16:24:18.768Z,4.47
2022-11-18T16:26:47.219Z,6.22
2022-11-18T16:29:17.492Z,6.30
2022-11-18T16:31:50.409Z,1.77
2022-11-18T16:34:20.307Z,2.55
2022-11-18T16:36:52.266Z,5.50
2022-11-18T16:39:23.532Z,2.50
2022-11-18T16:41:52.660Z,4.10
2022-11-18T16:44:21.967Z,2.80
2022-11-18T16:46:52.008Z,6.03
2022-11-18T16:49:22.125Z,2.45
2022-11-18T16:51:51.836Z,3.63
2022-11-18T16:54:22.661Z,3.50
2022-11-18T16:56:51.736Z,2.58
2022-11-18T16:59:22.721Z,4.88
2022-11-18T17:01:53.558Z,5.57
2022-11-18T17:04:23.363Z,4.03
2022-11-18T17:06:51.348Z,4.75
2022-11-18T17:09:21.906Z,5.50
2022-11-18T17:11:50.691Z,6.75
2022-11-18T17:14:19.705Z,7.18
2022-11-18T17:16:51.356Z,6.72
2022-11-18T17:19:21.027Z,6.93
2022-11-18T17:21:49.811Z,8.77
2022-11-18T17:24:19.499Z,16.17
2022-11-18T17:26:48.570Z,14.52
2022-11-18T17:29:17.398Z,21.20
2022-11-18T17:31:45.424Z,18.48
2022-11-18T17:34:19.828Z,16.90
2022-11-18T17:36:47.879Z,15.55
2022-11-18T17:39:16.231Z,17.73
2022-11-18T17:42:01.824Z,17.42
2022-11-18T17:44:29.933Z,17.15
2022-11-18T17:46:58.045Z,13.38
2022-11-18T17:49:27.120Z,8.40
2022-11-18T17:51:54.928Z,8.90
2022-11-18T17:54:23.747Z,11.45
2022-11-18T17:56:52.889Z,12.05
2022-11-18T17:59:20.967Z,18.55
2022-11-18T18:01:50.730Z,10.57
2022-11-18T18:04:22.337Z,14.43
2022-11-18T18:06:53.028Z,8.30
2022-11-18T18:09:28.533Z,8.85
2022-11-18T18:11:58.089Z,10.10
2022-11-18T18:14:24.855Z,13.73
2022-11-18T18:16:52.748Z,17.10
2022-11-18T18:19:22.067Z,21.00
2022-11-18T18:21:53.039Z,16.55
2022-11-18T18:24:21.133Z,16.67
2022-11-18T18:26:49.229Z,22.45
2022-11-18T18:29:17.106Z,30.45
2022-11-18T18:31:44.931Z,26.15
2022-11-18T18:34:12.719Z,38.08
2022-11-18T18:36:40.466Z,40.10
2022-11-18T18:39:09.601Z,46.83
2022-11-18T18:41:38.526Z,52.58
2022-11-18T18:44:06.490Z,52.40
2022-11-18T18:46:33.303Z,51.38
2022-11-18T18:49:04.372Z,57.72
2022-11-18T18:51:33.859Z,52.63
2022-11-18T18:54:01.584Z,54.22
2022-11-18T18:56:30.798Z,57.38
2022-11-18T18:58:58.925Z,73.72
2022-11-18T19:01:27.730Z,71.57
2022-11-18T19:03:57.033Z,68.18
2022-11-18T19:06:50.086Z,56.10
2022-11-18T19:09:14.767Z,49.25
2022-11-18T19:12:01.834Z,58.25
2022-11-18T19:14:29.780Z,49.38
2022-11-18T19:16:58.367Z,50.30
2022-11-18T19:19:45.601Z,43.58
2022-11-18T19:22:15.121Z,37.60
2022-11-18T19:24:49.830Z,33.78
2022-11-18T19:27:20.147Z,41.63
2022-11-18T19:29:48.200Z,40.13
2022-11-18T19:32:16.061Z,40.10
2022-11-18T19:34:43.924Z,46.40
2022-11-18T19:37:11.880Z,49.58
2022-11-18T19:39:39.603Z,45.97
2022-11-18T19:42:07.664Z,44.85
2022-11-18T19:44:36.835Z,38.90
2022-11-18T19:47:04.964Z,33.00
2022-11-18T19:49:32.943Z,42.42
2022-11-18T19:52:00.779Z,30.58
2022-11-18T19:54:28.587Z,36.20
2022-11-18T19:56:56.415Z,37.40
2022-11-18T19:59:24.186Z,29.52
2022-11-18T20:01:53.329Z,30.48
2022-11-18T20:04:21.315Z,30.05
2022-11-18T20:06:49.484Z,29.80
2022-11-18T20:09:18.329Z,29.83
2022-11-18T20:11:46.456Z,36.35
2022-11-18T20:14:14.352Z,40.70
2022-11-18T20:16:42.437Z,39.38
2022-11-18T20:19:13.629Z,37.15
2022-11-18T20:21:43.236Z,36.60
2022-11-18T20:24:15.749Z,34.38
2022-11-18T20:26:44.137Z,38.22
2022-11-18T20:29:12.423Z,32.40
2022-11-18T20:31:40.298Z,31.65
2022-11-18T20:34:08.432Z,41.28
2022-11-18T20:36:37.672Z,27.95
2022-11-18T20:39:07.283Z,49.58
2022-11-18T20:41:36.387Z,39.88
2022-11-18T20:44:05.141Z,44.35
2022-11-18T20:46:34.329Z,36.33
2022-11-18T20:49:02.595Z,50.78
2022-11-18T20:51:30.546Z,40.60
2022-11-18T20:54:00.110Z,48.15
2022-11-18T20:56:29.296Z,50.50
2022-11-18T20:58:57.754Z,53.95
2022-11-18T21:01:28.496Z,59.17
2022-11-18T21:03:58.719Z,55.72
2022-11-18T21:06:29.319Z,45.83
2022-11-18T21:09:00.032Z,45.00
2022-11-18T21:11:28.273Z,57.22
2022-11-18T21:14:28.060Z,58.58
2022-11-18T21:16:57.986Z,45.17
2022-11-18T21:19:26.399Z,39.78
2022-11-18T21:21:53.703Z,35.95
2022-11-18T21:24:24.996Z,30.27
2022-11-18T21:26:54.780Z,33.72
2022-11-18T21:29:23.332Z,26.25
2022-11-18T21:31:53.239Z,43.53
2022-11-18T21:34:22.250Z,32.20
2022-11-18T21:36:54.253Z,22.55
2022-11-18T21:39:24.930Z,19.17
2022-11-18T21:41:56.401Z,19.38
2022-11-18T21:44:25.599Z,21.70
2022-11-18T21:46:53.574Z,18.08
2022-11-18T21:49:21.797Z,19.30
2022-11-18T21:51:49.963Z,21.70
2022-11-18T21:54:18.379Z,21.73
2022-11-18T21:56:47.667Z,35.85
2022-11-18T21:59:15.448Z,18.40
2022-11-18T22:01:43.221Z,21.35
2022-11-18T22:04:31.687Z,34.10
2022-11-18T22:06:59.529Z,24.17
2022-11-18T22:09:31.451Z,21.33
2022-11-18T22:12:04.157Z,16.05
2022-11-18T22:14:31.923Z,20.08
2022-11-18T22:16:59.708Z,19.08
2022-11-18T22:19:27.416Z,16.65
2022-11-18T22:21:55.224Z,15.18
2022-11-18T22:24:23.344Z,24.75
2022-11-18T22:26:51.079Z,24.35
2022-11-18T22:29:20.492Z,22.88
2022-11-18T22:31:48.592Z,19.70
2022-11-18T22:34:16.279Z,19.92
2022-11-18T22:36:44.058Z,20.45
2022-11-18T22:39:11.831Z,23.38
2022-11-18T22:41:57.129Z,41.65
2022-11-18T22:44:26.236Z,57.83
2022-11-18T22:46:54.109Z,42.15
2022-11-18T22:49:22.060Z,43.47
2022-11-18T22:51:50.038Z,45.53
2022-11-18T22:57:05.791Z,54.60
2022-11-18T22:59:34.868Z,44.60
2022-11-18T23:02:02.683Z,43.80
2022-11-18T23:04:30.434Z,33.47
2022-11-18T23:06:58.172Z,37.88
2022-11-18T23:09:26.039Z,33.80
2022-11-18T23:12:11.162Z,33.85
2022-11-18T23:14:40.392Z,29.08
2022-11-18T23:17:08.094Z,35.03
2022-11-18T23:19:36.982Z,20.13
2022-11-18T23:22:04.821Z,30.80
2022-11-18T23:24:32.648Z,25.13
2022-11-18T23:27:00.479Z,13.93
2022-11-18T23:29:28.236Z,15.68
2022-11-18T23:31:57.436Z,9.70
2022-11-18T23:34:25.155Z,10.20
2022-11-18T23:36:52.989Z,8.35
2022-11-18T23:39:20.985Z,9.02
2022-11-18T23:41:49.016Z,11.38
2022-11-18T23:44:16.677Z,9.13
2022-11-18T23:46:44.387Z,8.43
2022-11-18T23:49:13.681Z,13.10
2022-11-18T23:51:41.427Z,13.23
2022-11-18T23:54:09.644Z,17.83
2022-11-18T23:56:38.494Z,10.10
2022-11-18T23:59:06.640Z,11.75
